Adna, Washington
Current Conditions -  °F | °C
As of 9:35 PM on Sunday 19 Oct 2014 (Local Time) from KCLS Reporting Station
Overcast Overcast  
Wind Chill: 59°   Ceiling: 11000
Heat Index: 59°   Visibility: 10mi
Dew Point: 57°   Wind: 0mph
Humidity: 94%   Direction: NA
Pressure: 29.69"   Gusts: NA
Location:  46.63°N, 123.06°W
Report Text: KCLS 200435Z AUTO 00000KT 10SM OVC110 15/14 A2969 RMK AO2
Loading
Personal Weather Stations






























Interactive Weather Map
Tropical Storm Tracking
New forecast layout! Learn more

10-Day Weather Forecast

Advertisements
Track Severe Weather on mobile